Home > Products > Valid Products > TAF

000
FTUS41 KLWX 252300
TAFCHO
TAF
KCHO 252338Z 2600/2624 24005KT P6SM FEW250
     FM260900 30004KT P6SM FEW250
     FM261500 29010G20KT P6SM SKC=



000
FTUS41 KLWX 252300
TAFBWI
TAF
KBWI 252338Z 2600/2706 25007KT P6SM FEW250
     FM261400 29015G25KT P6SM SKC
     FM270000 30008KT P6SM SKC=



000
FTUS41 KLWX 252300
TAFIAD
TAF
KIAD 252338Z 2600/2706 25006KT P6SM FEW250
     FM261500 30015G25KT P6SM SKC
     FM270000 30006KT P6SM SKC=



000
FTUS41 KLWX 252300
TAFMRB
TAF
KMRB 252338Z 2600/2624 27008KT P6SM FEW250
     FM261500 30015G25KT P6SM SKC
     FM262300 30009KT P6SM SKC=



000
FTUS41 KLWX 252300
TAFMTN
TAF
KMTN 252338Z 2600/2624 25006KT P6SM FEW250
     FM261300 29010KT P6SM SKC
     FM261600 29015G25KT P6SM FEW250
     FM262300 30010KT P6SM SKC
      AMD NOT SKED 2602/2612=



000
FTUS41 KLWX 252300
TAFDCA
TAF
KDCA 252338Z 2600/2624 24006KT P6SM FEW250
     FM261400 30015G25KT P6SM SKC=



000
FTUS41 KLWX 252000 AAA
TAFIAD
TAF AMD
KIAD 252050Z 2521/2624 24008KT P6SM FEW250
     FM260800 30007KT P6SM FEW250
     FM261500 30015G25KT P6SM SKC=



000
FTUS41 KLWX 252000 AAA
TAFBWI
TAF AMD
KBWI 252050Z 2521/2624 25010KT P6SM FEW250
     FM260800 29008KT P6SM FEW250
     FM261400 29015G25KT P6SM SKC=



000
FTUS41 KLWX 252000 AAA
TAFDCA
TAF AMD
KDCA 252050Z 2521/2618 24009KT P6SM FEW250
     FM260800 29008KT P6SM FEW250
     FM261500 30015G25KT P6SM SKC=



000
FTUS41 KLWX 251700
TAFMTN
TAF
KMTN 251730Z 2518/2618 26009KT P6SM FEW200
     FM261500 29014G26KT P6SM SKC=



000
FTUS41 KLWX 251700
TAFMRB
TAF
KMRB 251730Z 2518/2618 26010KT P6SM SCT090
     FM260600 30010KT P6SM FEW250
     FM261500 30015G25KT P6SM SKC=



000
FTUS41 KLWX 251700
TAFBWI
TAF
KBWI 251730Z 2518/2624 26010KT P6SM FEW200
     FM261600 29015G23KT P6SM SKC
     FM262300 30012KT P6SM SKC=



000
FTUS41 KLWX 251700
TAFIAD
TAF
KIAD 251730Z 2518/2624 25010KT P6SM FEW250
     FM261300 29009G18KT P6SM SKC
     FM261500 30014G25KT P6SM SKC
     FM262300 30008KT P6SM SKC=



000
FTUS41 KLWX 251700
TAFDCA
TAF
KDCA 251730Z 2518/2618 26010KT P6SM FEW200
     FM260800 29010KT P6SM FEW250
     FM261500 30013G25KT P6SM SKC=



000
FTUS41 KLWX 251700
TAFCHO
TAF
KCHO 251730Z 2518/2618 22007KT P6SM FEW250
     FM260700 28007KT P6SM FEW250
     FM261500 29009G20KT P6SM SKC=



000
FTUS41 KLWX 251500 AAA
TAFDCA
TAF AMD
KDCA 251510Z 2515/2612 25007KT P6SM FEW250
     FM260700 30008KT P6SM FEW250=



000
FTUS41 KLWX 251500 AAA
TAFBWI
TAF AMD
KBWI 251510Z 2515/2618 27007KT P6SM FEW250
     FM261400 29011G19KT P6SM FEW150=



000
FTUS41 KLWX 251500 AAA
TAFIAD
TAF AMD
KIAD 251509Z 2515/2618 25008KT P6SM FEW250
     FM261400 30010G18KT P6SM FEW150=



000
FTUS41 KLWX 251100
TAFMRB
TAF
KMRB 251130Z 2512/2612 23004KT P6SM SKC
     FM251500 26009KT P6SM FEW200
     FM260100 VRB04KT P6SM SCT200=



000
FTUS41 KLWX 251100
TAFIAD
TAF
KIAD 251130Z 2512/2618 32006KT P6SM SKC
     FM251500 25008KT P6SM FEW250
     FM261400 30010G18KT P6SM FEW150=



000
FTUS41 KLWX 251100
TAFBWI
TAF
KBWI 251130Z 2512/2618 VRB04KT P6SM SKC
     FM251500 27007KT P6SM FEW250
     FM261400 29011G19KT P6SM FEW150=



000
FTUS41 KLWX 251100
TAFDCA
TAF
KDCA 251130Z 2512/2612 01003KT P6SM SKC
     FM251500 25007KT P6SM FEW250=



000
FTUS41 KLWX 251100
TAFMTN
TAF
KMTN 251130Z 2512/2612 VRB03KT P6SM SKC
     FM251700 25007KT P6SM FEW250=



000
FTUS41 KLWX 251100
TAFCHO
TAF
KCHO 251130Z 2512/2612 25004KT P6SM SKC
     FM251700 22007KT P6SM FEW250
     FM260200 VRB03KT P6SM FEW200=



000
FTUS41 KLWX 251100
TAFMRB
TAF
KMRB 251130Z 2512/2612 23004KT P6SM SKC
     FM251500 26009KT P6SM FEW200
     FM260100 VRB04KT P6SM SCT200=



000
FTUS41 KLWX 251100
TAFBWI
TAF
KBWI 251130Z 2512/2618 VRB04KT P6SM SKC
     FM251500 27007KT P6SM FEW250
     FM261400 29011G19KT P6SM FEW150=



000
FTUS41 KLWX 251100
TAFIAD
TAF
KIAD 251130Z 2512/2618 32006KT P6SM SKC
     FM251500 25008KT P6SM FEW250
     FM261400 30010G18KT P6SM FEW150=



000
FTUS41 KLWX 251100
TAFDCA
TAF
KDCA 251130Z 2512/2612 01003KT P6SM SKC
     FM251500 25007KT P6SM FEW250=



000
FTUS41 KLWX 251100
TAFCHO
TAF
KCHO 251130Z 2512/2612 25004KT P6SM SKC
     FM251700 22007KT P6SM FEW250
     FM260200 VRB03KT P6SM FEW200=



000
FTUS41 KLWX 251100
TAFMTN
TAF
KMTN 251130Z 2512/2612 VRB03KT P6SM SKC
     FM251700 25007KT P6SM FEW250=



000
FTUS41 KLWX 250900 AAA
TAFDCA
TAF AMD
KDCA 250905Z 2509/2606 02004KT P6SM SKC
     FM251500 25009KT P6SM FEW250=



000
FTUS41 KLWX 250900 AAA
TAFBWI
TAF AMD
KBWI 250905Z 2509/2612 27004KT P6SM SKC
     FM251500 24010KT P6SM FEW200
     FM260100 25005KT P6SM FEW200=



000
FTUS41 KLWX 250900 AAA
TAFIAD
TAF AMD
KIAD 250905Z 2509/2612 32007KT P6SM SKC
     FM251500 25009KT P6SM FEW250
     FM260100 VRB03KT P6SM FEW150=



000
FTUS41 KLWX 250500
TAFMTN
TAF
KMTN 250526Z 2506/2606 NIL=



000
FTUS41 KLWX 250500
TAFIAD
TAF
KIAD 250526Z 2506/2612 32005KT P6SM FEW220
     FM251700 25009KT P6SM FEW250
     FM260100 VRB03KT P6SM FEW150=



000
FTUS41 KLWX 250500
TAFDCA
TAF
KDCA 250526Z 2506/2606 34007KT P6SM FEW250
     FM251700 25009KT P6SM FEW250=



000
FTUS41 KLWX 250500
TAFCHO
TAF
KCHO 250526Z 2506/2606 32004KT P6SM SKC
     FM251700 22008KT P6SM FEW250
     FM260100 VRB03KT P6SM FEW200=



000
FTUS41 KLWX 250500
TAFBWI
TAF
KBWI 250526Z 2506/2612 30005KT P6SM FEW250
     FM251800 25010KT P6SM FEW200
     FM260100 25005KT P6SM FEW200=



000
FTUS41 KLWX 250500
TAFMRB
TAF
KMRB 250526Z 2506/2606 VRB03KT P6SM SKC
     FM251600 26008KT P6SM FEW250=



000
FTUS41 KLWX 242300
TAFMRB
TAF
KMRB 242334Z 2500/2524 30005KT P6SM SCT200
     FM250400 00000KT P6SM FEW200
     FM251500 28006KT P6SM SCT250
     FM251800 27010KT P6SM SCT080=



000
FTUS41 KLWX 242300
TAFMTN
TAF
KMTN 242334Z 2500/2524 30007KT P6SM BKN200
     FM250700 VRB03KT P6SM FEW200
     FM251600 28007KT P6SM FEW250
      AMD NOT SKED 2502/2512=



000
FTUS41 KLWX 242300
TAFIAD
TAF
KIAD 242334Z 2500/2606 31004KT P6SM SCT200
     FM251700 27008KT P6SM FEW250
     FM260200 26004KT P6SM SCT250=



000
FTUS41 KLWX 242300
TAFBWI
TAF
KBWI 242334Z 2500/2606 30006KT P6SM BKN200
     FM250700 00000KT P6SM FEW200
     FM251500 29006KT P6SM FEW250
     FM251900 27010KT P6SM FEW250
     FM260000 25006KT P6SM SCT050
     FM260100 25006KT P6SM SCT250=



000
FTUS41 KLWX 242300
TAFCHO
TAF
KCHO 242334Z 2500/2524 00000KT P6SM SCT200
     FM251800 22006KT P6SM FEW250=



000
FTUS41 KLWX 242300
TAFDCA
TAF
KDCA 242334Z 2500/2524 31005KT P6SM SCT200
     FM251900 26009KT P6SM FEW250=



000
FTUS41 KLWX 242000 AAA
TAFIAD
TAF AMD
KIAD 242052Z 2421/2524 31010KT P6SM SCT200
     FM250000 31006KT P6SM FEW150 SCT200
     FM252100 25007KT P6SM FEW040=



000
FTUS41 KLWX 242000 AAA
TAFBWI
TAF AMD
KBWI 242052Z 2421/2524 30011KT P6SM FEW200
     FM250000 30007KT P6SM FEW150 SCT200
     FM252100 26010KT P6SM FEW040=



000
FTUS41 KLWX 242000 AAA
TAFDCA
TAF AMD
KDCA 242052Z 2421/2518 30010KT P6SM SCT200
     FM250100 31006KT P6SM FEW150 FEW200=



000
FTUS41 KLWX 241700
TAFMRB
TAF
KMRB 241734Z 2418/2518 31011KT P6SM FEW150 SCT200
     FM242300 30007KT P6SM FEW150 SCT200=



000
FTUS41 KLWX 241700
TAFCHO
TAF
KCHO 241734Z 2418/2518 29005KT P6SM FEW150 SCT200
     FM251600 23004KT P6SM FEW250=



000
FTUS41 KLWX 241700
TAFMTN
TAF
KMTN 241734Z 2418/2518 31013G24KT P6SM FEW150 FEW250
     FM242300 30010KT P6SM FEW150 SCT200
     FM250900 31005KT P6SM FEW200=



000
FTUS41 KLWX 241700
TAFIAD
TAF
KIAD 241734Z 2418/2524 31015G24KT P6SM FEW150 SCT200
     FM242200 31008KT P6SM FEW150 SCT200
     FM250500 31004KT P6SM FEW200
     FM251700 27008KT P6SM FEW250
     FM252100 25007KT P6SM FEW040=



000
FTUS41 KLWX 241700
TAFBWI
TAF
KBWI 241734Z 2418/2524 31013G20KT P6SM FEW150 FEW250
     FM242300 30008KT P6SM FEW150 SCT200
     FM251000 30004KT P6SM FEW200
     FM251700 27008KT P6SM FEW250
     FM252100 26010KT P6SM FEW040=



000
FTUS41 KLWX 241700
TAFDCA
TAF
KDCA 241734Z 2418/2518 31014G24KT P6SM FEW150 SCT200
     FM242300 31010KT P6SM FEW150 SCT200
     FM250800 31004KT P6SM FEW200=



000
FTUS41 KLWX 241500 AAA
TAFDCA
TAF AMD
KDCA 241517Z 2415/2512 31012G23KT P6SM FEW120 SCT200
     FM250600 31005KT P6SM FEW250=



000
FTUS41 KLWX 241500 AAA
TAFBWI
TAF AMD
KBWI 241517Z 2415/2518 31012G23KT P6SM FEW120 SCT200
     FM242300 30009KT P6SM SCT250
     FM250800 30005KT P6SM FEW250=



000
FTUS41 KLWX 241500 AAA
TAFIAD
TAF AMD
KIAD 241517Z 2415/2518 31011G22KT P6SM FEW120 SCT200
     FM250100 31006KT P6SM FEW250=



000
FTUS41 KLWX 241100
TAFBWI
TAF
KBWI 241140Z 2412/2518 29006KT P6SM FEW045
     FM241300 31012G23KT P6SM SCT200
     FM242300 30009KT P6SM SCT250
     FM250800 30005KT P6SM FEW250=



000
FTUS41 KLWX 241100
TAFDCA
TAF
KDCA 241140Z 2412/2512 30008G18KT P6SM SKC
     FM241300 31012G23KT P6SM SCT200
     FM250600 31005KT P6SM FEW250=



000
FTUS41 KLWX 241100
TAFIAD
TAF
KIAD 241140Z 2412/2518 32009KT P6SM SKC
     FM241300 31011G22KT P6SM SCT200
     FM250100 31006KT P6SM FEW250=



000
FTUS41 KLWX 241100
TAFMTN
TAF
KMTN 241140Z 2412/2512 31009KT P6SM SCT050
     FM241300 31012G23KT P6SM SCT200
     FM250600 31006KT P6SM FEW250=



000
FTUS41 KLWX 241100
TAFCHO
TAF
KCHO 241140Z 2412/2512 29008KT P6SM SKC
     FM241300 31010G17KT P6SM SCT200
     FM250600 VRB03KT P6SM FEW200=



000
FTUS41 KLWX 241100
TAFMRB
TAF
KMRB 241140Z 2412/2512 33006KT P6SM SKC
     FM241600 31011G19KT P6SM SCT250
     FM250200 31005KT P6SM SCT250=



000
FTUS41 KLWX 240900 AAA
TAFBWI
TAF AMD
KBWI 240905Z 2409/2512 30007KT P6SM FEW050
     FM241300 32012G24KT P6SM FEW250
     FM242300 30007KT P6SM FEW250=



000
FTUS41 KLWX 240900 AAA
TAFDCA
TAF AMD
KDCA 240905Z 2409/2506 31009KT P6SM SKC
     FM241300 31012G23KT P6SM SCT250
     FM250000 31008KT P6SM FEW250=



000
FTUS41 KLWX 240900 AAA
TAFIAD
TAF AMD
KIAD 240905Z 2409/2512 30008KT P6SM SKC
     FM241300 31012G21KT P6SM FEW150
     FM250000 31006KT P6SM FEW250=



000
FTUS41 KLWX 240500
TAFIAD
TAF
KIAD 240524Z 2406/2512 32010KT P6SM SKC
      TEMPO 2406/2409 31012G22KT P6SM SKC
     FM241300 31012G21KT P6SM FEW150
     FM250000 31006KT P6SM FEW250=



000
FTUS41 KLWX 240500
TAFCHO
TAF
KCHO 240524Z 2406/2506 22005KT P6SM SKC
     FM241300 32009KT P6SM FEW150
     FM250000 VRB03KT P6SM FEW250=



000
FTUS41 KLWX 240500
TAFMRB
TAF
KMRB 240524Z 2406/2506 31008KT P6SM FEW200
     FM241300 31012G20KT P6SM SCT250
     FM242300 30006KT P6SM SCT200=



000
FTUS41 KLWX 240500
TAFDCA
TAF
KDCA 240524Z 2406/2506 32010KT P6SM FEW060
      TEMPO 2406/2409 31011G20KT P6SM SKC
     FM241300 31012G23KT P6SM SCT250
     FM250000 31008KT P6SM FEW250=



000
FTUS41 KLWX 240500
TAFMTN
TAF
KMTN 240524Z 2406/2506 NIL=



000
FTUS41 KLWX 240500
TAFBWI
TAF
KBWI 240524Z 2406/2512 29009KT P6SM FEW060
     FM241300 32012G24KT P6SM FEW250
     FM242300 30007KT P6SM FEW250=



000
FTUS41 KLWX 232300
TAFMTN
TAF
KMTN 232323Z 2400/2424 34012KT P6SM BKN050
     FM240300 33010KT P6SM SCT050
     FM240500 32010KT P6SM BKN050
     FM240800 31009KT P6SM SCT050
     FM241100 31009KT P6SM BKN050
     FM241500 32011KT P6SM SCT150
      AMD NOT SKED 2402/2412=



000
FTUS41 KLWX 232300
TAFIAD
TAF
KIAD 232323Z 2400/2506 32012KT P6SM SCT050
     FM240900 31009KT P6SM SCT250
     FM241800 31011G19KT P6SM SCT250
     FM242200 31009KT P6SM FEW250=



000
FTUS41 KLWX 232300
TAFMRB
TAF
KMRB 232323Z 2400/2424 32012KT P6SM SCT050
     FM240800 30008KT P6SM SCT200
     FM241600 31011G19KT P6SM FEW250
     FM242200 31008KT P6SM SCT200=



000
FTUS41 KLWX 232300
TAFDCA
TAF
KDCA 232323Z 2400/2424 33010KT P6SM SCT050
     FM241300 31010KT P6SM SCT250=



000
FTUS41 KLWX 232300
TAFBWI
TAF
KBWI 232323Z 2400/2506 33009KT P6SM BKN050
     FM240200 33008KT P6SM SCT050
     FM241100 31010KT P6SM BKN060
     FM241500 32011KT P6SM FEW250=



000
FTUS41 KLWX 232300
TAFCHO
TAF
KCHO 232323Z 2400/2424 32005KT P6SM FEW250=



000
FTUS41 KLWX 232000 AAA
TAFDCA
TAF AMD
KDCA 232050Z 2321/2418 32012G24KT P6SM BKN050
     FM232200 32012KT P6SM SCT050
     FM240600 31010KT P6SM BKN050
     FM240900 31009KT P6SM SCT050
     FM241300 31010KT P6SM SCT250=



000
FTUS41 KLWX 232000 AAA
TAFBWI
TAF AMD
KBWI 232050Z 2321/2424 32013G23KT P6SM BKN050
     FM240300 33010KT P6SM SCT050
     FM240600 31011KT P6SM BKN050
     FM240900 31010KT P6SM SCT050
     FM241200 31011KT P6SM BKN050
     FM241500 32011KT P6SM FEW250=



000
FTUS41 KLWX 232000 AAA
TAFIAD
TAF AMD
KIAD 232050Z 2321/2424 32015G25KT P6SM SCT050
     FM240300 32011KT P6SM SCT050
     FM241000 31010KT P6SM SCT250
     FM241800 31011G19KT P6SM SCT250
     FM242200 31009KT P6SM FEW250=



000
FTUS41 KLWX 231700
TAFCHO
TAF
KCHO 231739Z 2318/2418 32013G22KT P6SM FEW090
     FM240000 32008KT P6SM SKC
     FM240300 VRB03KT P6SM SKC
     FM241300 32005KT P6SM SKC=



000
FTUS41 KLWX 231700
TAFCHO
TAF
KCHO 231739Z 2318/2418 32013G22KT P6SM FEW090
     FM240000 32008KT P6SM SKC
     FM240300 VRB03KT P6SM SKC
     FM241300 32005KT P6SM SKC=



000
FTUS41 KLWX 231700
TAFDCA
TAF
KDCA 231739Z 2318/2418 32014G25KT P6SM BKN040
     FM232200 32012KT P6SM SCT050
     FM241300 31010KT P6SM SCT250=



000
FTUS41 KLWX 231700
TAFIAD
TAF
KIAD 231739Z 2318/2424 32017G26KT P6SM BKN050
     FM240300 32011KT P6SM SCT050
     FM241800 31011G19KT P6SM SCT250
     FM242200 31009KT P6SM FEW250=



000
FTUS41 KLWX 231700
TAFMTN
TAF
KMTN 231739Z 2318/2418 32014G22KT P6SM OVC050
     FM240200 33010KT P6SM BKN050
     FM241500 32011G18KT P6SM SCT090=



000
FTUS41 KLWX 231700
TAFMRB
TAF
KMRB 231739Z 2318/2418 32017G26KT P6SM SCT050
     FM240200 32011KT P6SM SCT050=



000
FTUS41 KLWX 231700
TAFMTN
TAF
KMTN 231739Z 2318/2418 32014G22KT P6SM OVC050
     FM240200 33010KT P6SM BKN050
     FM241500 32011G18KT P6SM SCT090=



000
FTUS41 KLWX 231700
TAFBWI
TAF
KBWI 231739Z 2318/2424 32015G23KT P6SM OVC050
     FM240200 32010KT P6SM SCT050
     FM241500 32011G18KT P6SM FEW250=



000
FTUS41 KLWX 231700
TAFBWI
TAF
KBWI 231739Z 2318/2424 32015G23KT P6SM OVC050
     FM240200 32010KT P6SM SCT050
     FM241500 32011G18KT P6SM FEW250=



000
FTUS41 KLWX 231700
TAFIAD
TAF
KIAD 231739Z 2318/2424 32017G26KT P6SM BKN050
     FM240300 32011KT P6SM SCT050
     FM241800 31011G19KT P6SM SCT250
     FM242200 31009KT P6SM FEW250=



000
FTUS41 KLWX 231700
TAFMRB
TAF
KMRB 231739Z 2318/2418 32017G26KT P6SM SCT050
     FM240200 32011KT P6SM SCT050=



000
FTUS41 KLWX 231700
TAFDCA
TAF
KDCA 231739Z 2318/2418 32014G25KT P6SM BKN040
     FM232200 32012KT P6SM SCT050
     FM241300 31010KT P6SM SCT250=



000
FTUS41 KLWX 231400 AAA
TAFBWI
TAF AMD
KBWI 231459Z 2315/2418 31016G24KT P6SM SCT035 BKN080
     FM240100 32009KT P6SM SCT150
     FM241700 30011G19KT P6SM FEW250=



000
FTUS41 KLWX 231400 AAA
TAFDCA
TAF AMD
KDCA 231459Z 2315/2412 32016G24KT P6SM SCT040 BKN070
     FM232200 32012KT P6SM SCT090=



000
FTUS41 KLWX 231400 AAA
TAFIAD
TAF AMD
KIAD 231459Z 2315/2418 32020G29KT P6SM FEW040
     FM232100 32015G23KT P6SM SCT090
     FM240100 32010KT P6SM SCT150=



000
FTUS41 KLWX 231100
TAFCHO
TAF
KCHO 231129Z 2312/2412 31010G20KT P6SM SCT100 BKN250
     FM231500 32011KT P6SM FEW250
     FM240000 32007KT P6SM FEW250=



000
FTUS41 KLWX 231100
TAFBWI
TAF
KBWI 231129Z 2312/2418 31011G19KT P6SM OVC040
     FM231500 31016G24KT P6SM OVC050
     FM240100 32009KT P6SM SCT150
     FM241700 30011G19KT P6SM FEW250=



000
FTUS41 KLWX 231100
TAFIAD
TAF
KIAD 231129Z 2312/2418 32015G23KT P6SM BKN040
     FM232100 32015G23KT P6SM SCT090
     FM240300 32010KT P6SM SCT150=



000
FTUS41 KLWX 231100
TAFMRB
TAF
KMRB 231129Z 2312/2412 32014G22KT P6SM SCT050 BKN070
     FM232000 32010G20KT P6SM SCT090
     FM240200 31011KT P6SM SCT150=



000
FTUS41 KLWX 231100
TAFDCA
TAF
KDCA 231129Z 2312/2412 32016G24KT P6SM OVC040
     FM232200 32012KT P6SM SCT090=



000
FTUS41 KLWX 231100
TAFMTN
TAF
KMTN 231129Z 2312/2412 32013G22KT P6SM OVC040
     FM231800 32014G22KT P6SM OVC030
     FM232000 32013KT P6SM BKN035
     FM240300 32009KT P6SM SCT150=



000
FTUS41 KLWX 230800 AAA
TAFBWI
TAF AMD
KBWI 230856Z 2309/2412 30010G24KT P6SM OVC030
     FM231400 32012G20KT P6SM OVC050
     FM240300 32009KT P6SM SCT150
     FM240600 31010KT 5SM -SHRA VCTS SCT150CB=



000
FTUS41 KLWX 230800 AAA
TAFIAD
TAF AMD
KIAD 230856Z 2309/2412 32014G23KT P6SM BKN040
     FM232100 32010G20KT P6SM SCT090
     FM240300 32010KT P6SM SCT150=



000
FTUS41 KLWX 230800 AAA
TAFDCA
TAF AMD
KDCA 230856Z 2309/2406 32011G22KT P6SM OVC035
     FM231000 32011KT P6SM BKN050
     FM232200 32012KT P6SM SCT090=



000
FTUS41 KLWX 230500
TAFDCA
TAF
KDCA 230526Z 2306/2406 32011G22KT P6SM BKN050
     FM231300 32011G24KT P6SM BKN035
     FM232200 32012KT P6SM SCT090=



000
FTUS41 KLWX 230500
TAFMRB
TAF
KMRB 230526Z 2306/2406 32012G20KT P6SM BKN050
     FM231400 32012G24KT P6SM BKN090
     FM232000 32016KT P6SM SCT090
     FM240200 31011KT P6SM SCT150=



000
FTUS41 KLWX 230500
TAFBWI
TAF
KBWI 230526Z 2306/2412 32012G22KT P6SM OVC025
      TEMPO 2306/2310 -SHRA
     FM231300 32012G22KT P6SM OVC050
     FM240300 32009KT P6SM SCT150=



000
FTUS41 KLWX 230500
TAFCHO
TAF
KCHO 230526Z 2306/2406 31006KT P6SM FEW250
     FM231400 32010KT P6SM SCT250
     FM240100 32006KT P6SM FEW250=



000
FTUS41 KLWX 230500
TAFIAD
TAF
KIAD 230526Z 2306/2412 32013KT P6SM SCT090
     FM231200 32014G22KT P6SM BKN050
     FM232100 32015KT P6SM SCT090
     FM240300 32010KT P6SM SCT150=



000
FTUS41 KLWX 230500
TAFMTN
TAF
KMTN 230526Z 2306/2406 NIL=



    US Dept of Commerce
    National Oceanic and Atmospheric Administration
    National Weather Service
    1325 East West Highway
    Silver Spring, MD 20910
    Page Author: NWS Internet Services Team
Disclaimer
Information Quality
Credits
Glossary
Privacy Policy
Freedom of Information Act (FOIA)
About Us
Career Opportunities